Airfield :
LOGIN :

Register | Disclaimer

   EN    FR    IT 

 










Legend :    VFR   Marginal VFR   IFR   Intensive IFR   Very Intensive IFR
Visi :
Ceiling :
>= 8 km
>= 3000ft
5 to 8 km
1000 to 3000 ft
1500m to 5 km
500 to 1000 ft
800 to 1500m
200 to 500 ft
< 800m
< 200 ft
Symbols :   Thunderstorms  Fog  Heavy snow  Heavy precipitations  Wind > 20 kt
SIGMETs :     Misc.  Thunderstorms  Icing  Turbulence  Mountain Waves  Volcanic Ashes






- Airport Elevation : 1090 ft
- IATA code : CFE


LFLC - Clermont-Ferrand Auvergne

CURRENT METAR :
  • 280530Z AUTO 14004KT 9999 FEW047/// SCT062/// BKN074/// ///TCU 10/05 Q1014 TEMPO RA BECMG 27010KT BKN050

EXPIRED METARs :
  • 280500Z AUTO 20004KT 170V230 9999 BKN062/// BKN076/// OVC092/// ///TCU 10/05 Q1014 TEMPO RA BKN040
  • 280300Z AUTO 17011KT 9999 BKN047/// BKN074/// OVC098/// ///TCU 10/04 Q1014 TEMPO RA BKN040

TAF TAF LFLC
Valid from the 28 at 00:00 until the 29 at 00:00 UTC


272300Z 2800/2824 19013KT CAVOK
TEMPO 2800/2802 18018G28KT
PROB40
TEMPO 2803/2808 RA BKN040
BECMG 2806/2808 27010KT
BECMG 2814/2816 VRB02KT BKN040
TEMPO 2814/2823 4000 SHRA SCT035TCU
ATIS : +33 4 73 62 74 38



MET'MAP, your aeronautical weather chart ! - Copyright ORBIFLY December 2007 - Disclaimer

ORBIFLY MET'MAP TEAM :

Programming & Development : Alexandra Zaïnal
Original concept : Baudouin d'Aumeries
Technical & hardware support : Manuel Goepfert
Assistance : Marc-Olivier Méhu




SOURCES & CREDITS :

   NOAA